createdAt,value
2023-04-19T00:00:51.265Z,607.00
2023-04-19T00:01:52.260Z,603.00
2023-04-19T00:02:51.383Z,607.00
2023-04-19T00:03:51.411Z,607.00
2023-04-19T00:04:51.354Z,614.00
2023-04-19T00:05:51.201Z,610.00
2023-04-19T00:06:52.210Z,610.00
2023-04-19T00:07:51.207Z,610.00
2023-04-19T00:08:52.225Z,605.00
2023-04-19T00:09:52.239Z,609.00
2023-04-19T00:10:51.252Z,607.00
2023-04-19T00:11:51.251Z,604.00
2023-04-19T00:12:52.275Z,606.00
2023-04-19T00:13:52.280Z,610.00
2023-04-19T00:14:51.316Z,607.00
2023-04-19T00:15:52.354Z,605.00
2023-04-19T00:16:52.388Z,604.00
2023-04-19T00:17:52.370Z,609.00
2023-04-19T00:18:52.374Z,606.00
2023-04-19T00:19:51.405Z,606.00
2023-04-19T00:20:52.402Z,608.00
2023-04-19T00:21:51.408Z,605.00
2023-04-19T00:22:51.423Z,607.00
2023-04-19T00:23:52.451Z,601.00
2023-04-19T00:24:52.464Z,606.00
2023-04-19T00:25:52.482Z,606.00
2023-04-19T00:26:52.476Z,603.00
2023-04-19T00:27:52.490Z,603.00
2023-04-19T00:28:52.504Z,603.00
2023-04-19T00:29:52.516Z,608.00
2023-04-19T00:30:52.614Z,603.00
2023-04-19T00:31:52.550Z,602.00
2023-04-19T00:32:52.681Z,606.00
2023-04-19T00:33:52.583Z,602.00
2023-04-19T00:34:52.609Z,603.00
2023-04-19T00:35:51.619Z,607.00
2023-04-19T00:36:52.609Z,610.00
2023-04-19T00:37:51.613Z,607.00
2023-04-19T00:38:52.661Z,604.00
2023-04-19T00:39:52.666Z,610.00
2023-04-19T00:40:51.638Z,605.00
2023-04-19T00:41:52.703Z,607.00
2023-04-19T00:42:52.701Z,599.00
2023-04-19T00:43:52.696Z,600.00
2023-04-19T00:44:51.718Z,605.00
2023-04-19T00:45:52.839Z,603.00
2023-04-19T00:46:52.734Z,603.00
2023-04-19T00:47:52.754Z,605.00
2023-04-19T00:48:52.759Z,598.00
2023-04-19T00:49:52.764Z,600.00
2023-04-19T00:50:52.770Z,601.00
2023-04-19T00:51:52.763Z,603.00
2023-04-19T00:52:52.770Z,604.00
2023-04-19T00:53:52.768Z,605.00
2023-04-19T00:54:52.806Z,605.00
2023-04-19T00:55:52.783Z,606.00
2023-04-19T00:56:52.794Z,607.00
2023-04-19T00:57:52.801Z,609.00
2023-04-19T00:58:52.796Z,606.00
2023-04-19T00:59:52.837Z,603.00
2023-04-19T01:00:52.823Z,601.00
2023-04-19T01:01:52.921Z,608.00
2023-04-19T01:02:52.979Z,611.00
2023-04-19T01:03:52.995Z,605.00
2023-04-19T01:04:53.034Z,603.00
2023-04-19T01:05:52.889Z,606.00
2023-04-19T01:06:51.913Z,600.00
2023-04-19T01:07:51.926Z,600.00
2023-04-19T01:08:52.915Z,598.00
2023-04-19T01:09:52.962Z,597.00
2023-04-19T01:10:52.962Z,598.00
2023-04-19T01:11:52.960Z,594.00
2023-04-19T01:12:51.988Z,602.00
2023-04-19T01:13:53.006Z,603.00
2023-04-19T01:14:53.039Z,601.00
2023-04-19T01:15:52.106Z,606.00
2023-04-19T01:16:53.047Z,607.00
2023-04-19T01:17:53.156Z,607.00
2023-04-19T01:18:53.074Z,598.00
2023-04-19T01:19:52.103Z,602.00
2023-04-19T01:20:52.184Z,608.00
2023-04-19T01:21:53.150Z,602.00
2023-04-19T01:22:52.160Z,603.00
2023-04-19T01:23:52.168Z,602.00
2023-04-19T01:24:53.222Z,600.00
2023-04-19T01:25:53.239Z,598.00
2023-04-19T01:26:53.262Z,603.00
2023-04-19T01:27:53.272Z,603.00
2023-04-19T01:28:53.291Z,604.00
2023-04-19T01:29:53.293Z,599.00
2023-04-19T01:30:52.365Z,599.00
2023-04-19T01:31:53.347Z,603.00
2023-04-19T01:32:52.388Z,602.00
2023-04-19T01:33:53.381Z,603.00
2023-04-19T01:34:53.401Z,598.00
2023-04-19T01:35:52.712Z,601.00
2023-04-19T01:36:53.479Z,606.00
2023-04-19T01:37:53.481Z,598.00
2023-04-19T01:38:53.506Z,602.00
2023-04-19T01:39:53.540Z,597.00
2023-04-19T01:40:53.571Z,603.00
2023-04-19T01:41:52.584Z,596.00
2023-04-19T01:42:52.640Z,594.00
2023-04-19T01:43:52.632Z,600.00
2023-04-19T01:44:53.657Z,608.00
2023-04-19T01:45:52.695Z,604.00
2023-04-19T01:46:52.806Z,604.00
2023-04-19T01:47:53.791Z,603.00
2023-04-19T01:48:53.779Z,601.00
2023-04-19T01:49:53.796Z,599.00
2023-04-19T01:50:53.834Z,601.00
2023-04-19T01:51:53.855Z,603.00
2023-04-19T01:52:53.909Z,600.00
2023-04-19T01:53:53.912Z,593.00
2023-04-19T01:54:52.950Z,589.00
2023-04-19T01:55:52.973Z,596.00
2023-04-19T01:56:54.004Z,595.00
2023-04-19T01:57:54.767Z,596.00
2023-04-19T01:58:54.076Z,589.00
2023-04-19T01:59:53.120Z,592.00
2023-04-19T02:00:54.161Z,592.00
2023-04-19T02:01:54.224Z,593.00
2023-04-19T02:02:53.387Z,596.00
2023-04-19T02:03:54.385Z,593.00
2023-04-19T02:04:54.264Z,595.00
2023-04-19T02:05:53.279Z,592.00
2023-04-19T02:06:53.344Z,594.00
2023-04-19T02:07:53.343Z,593.00
2023-04-19T02:08:54.423Z,590.00
2023-04-19T02:09:54.417Z,589.00
2023-04-19T02:10:54.453Z,596.00
2023-04-19T02:11:53.469Z,591.00
2023-04-19T02:12:54.504Z,591.00
2023-04-19T02:13:54.518Z,592.00
2023-04-19T02:14:54.547Z,591.00
2023-04-19T02:15:54.647Z,596.00
2023-04-19T02:16:54.671Z,592.00
2023-04-19T02:17:53.712Z,599.00
2023-04-19T02:18:54.688Z,601.00
2023-04-19T02:19:54.733Z,603.00
2023-04-19T02:20:54.824Z,597.00
2023-04-19T02:21:54.809Z,595.00
2023-04-19T02:22:53.853Z,592.00
2023-04-19T02:23:54.897Z,592.00
2023-04-19T02:24:54.975Z,596.00
2023-04-19T02:25:54.972Z,591.00
2023-04-19T02:26:53.980Z,591.00
2023-04-19T02:27:54.026Z,594.00
2023-04-19T02:28:55.087Z,593.00
2023-04-19T02:29:55.088Z,596.00
2023-04-19T02:30:55.137Z,598.00
2023-04-19T02:31:54.241Z,596.00
2023-04-19T02:32:55.315Z,594.00
2023-04-19T02:33:55.227Z,590.00
2023-04-19T02:34:55.280Z,591.00
2023-04-19T02:35:55.270Z,589.00
2023-04-19T02:36:55.288Z,586.00
2023-04-19T02:37:54.313Z,593.00
2023-04-19T02:38:54.359Z,592.00
2023-04-19T02:39:55.404Z,593.00
2023-04-19T02:40:54.452Z,603.00
2023-04-19T02:41:55.442Z,597.00
2023-04-19T02:42:55.450Z,596.00
2023-04-19T02:43:55.467Z,594.00
2023-04-19T02:44:55.493Z,592.00
2023-04-19T02:45:55.525Z,593.00
2023-04-19T02:46:55.551Z,596.00
2023-04-19T02:47:54.575Z,601.00
2023-04-19T02:48:55.560Z,609.00
2023-04-19T02:49:55.601Z,605.00
2023-04-19T02:50:54.610Z,605.00
2023-04-19T02:51:55.596Z,612.00
2023-04-19T02:52:55.614Z,613.00
2023-04-19T02:53:54.614Z,621.00
2023-04-19T02:54:54.632Z,616.00
2023-04-19T02:55:55.630Z,620.00
2023-04-19T02:56:54.631Z,622.00
2023-04-19T02:57:54.608Z,614.00
2023-04-19T02:58:54.616Z,624.00
2023-04-19T02:59:54.620Z,629.00
2023-04-19T03:00:54.680Z,613.00
2023-04-19T03:01:55.766Z,615.00
2023-04-19T03:02:55.781Z,619.00
2023-04-19T03:03:55.807Z,616.00
2023-04-19T03:04:55.646Z,614.00
2023-04-19T03:05:54.678Z,612.00
2023-04-19T03:06:55.704Z,607.00
2023-04-19T03:08:08.430Z,612.00
2023-04-19T03:08:55.716Z,613.00
2023-04-19T03:09:58.747Z,609.00
2023-04-19T03:10:55.731Z,612.00
2023-04-19T03:12:04.248Z,601.00
2023-04-19T03:12:55.694Z,611.00
2023-04-19T03:13:55.687Z,593.00
2023-04-19T03:14:54.673Z,583.00
2023-04-19T03:15:54.699Z,582.00
2023-04-19T03:17:08.323Z,576.00
2023-04-19T03:17:55.720Z,599.00
2023-04-19T03:18:54.661Z,587.00
2023-04-19T03:19:55.793Z,582.00
2023-04-19T03:20:54.633Z,579.00
2023-04-19T03:21:54.622Z,572.00
2023-04-19T03:22:54.609Z,573.00
2023-04-19T03:23:55.636Z,571.00
2023-04-19T03:24:55.591Z,569.00
2023-04-19T03:25:55.597Z,568.00
2023-04-19T03:26:54.581Z,567.00
2023-04-19T03:27:55.614Z,563.00
2023-04-19T03:28:55.562Z,557.00
2023-04-19T03:29:54.559Z,557.00
2023-04-19T03:30:55.567Z,563.00
2023-04-19T03:31:54.561Z,561.00
2023-04-19T03:32:54.609Z,559.00
2023-04-19T03:33:55.538Z,557.00
2023-04-19T03:34:55.552Z,561.00
2023-04-19T03:35:55.546Z,556.00
2023-04-19T03:36:55.533Z,554.00
2023-04-19T03:37:55.499Z,554.00
2023-04-19T03:38:55.508Z,554.00
2023-04-19T03:39:54.493Z,553.00
2023-04-19T03:40:55.641Z,555.00
2023-04-19T03:41:55.540Z,549.00
2023-04-19T03:42:55.560Z,552.00
2023-04-19T03:43:55.634Z,552.00
2023-04-19T03:44:54.643Z,548.00
2023-04-19T03:45:55.698Z,543.00
2023-04-19T03:46:54.739Z,541.00
2023-04-19T03:47:54.854Z,545.00
2023-04-19T03:48:55.805Z,546.00
2023-04-19T03:49:54.851Z,542.00
2023-04-19T03:50:54.883Z,541.00
2023-04-19T03:51:55.940Z,537.00
2023-04-19T03:52:55.970Z,549.00
2023-04-19T03:53:55.026Z,549.00
2023-04-19T03:54:56.060Z,540.00
2023-04-19T03:55:55.085Z,550.00
2023-04-19T03:56:56.150Z,545.00
2023-04-19T03:57:55.182Z,545.00
2023-04-19T03:58:55.221Z,551.00
2023-04-19T03:59:55.285Z,545.00
2023-04-19T04:00:56.299Z,549.00
2023-04-19T04:01:56.017Z,551.00
2023-04-19T04:02:55.592Z,554.00
2023-04-19T04:03:56.534Z,548.00
2023-04-19T04:04:55.530Z,555.00
2023-04-19T04:05:56.494Z,549.00
2023-04-19T04:06:56.544Z,557.00
2023-04-19T04:07:56.599Z,543.00
2023-04-19T04:08:56.605Z,549.00
2023-04-19T04:09:56.652Z,546.00
2023-04-19T04:10:56.728Z,548.00
2023-04-19T04:11:56.734Z,555.00
2023-04-19T04:12:55.759Z,570.00
2023-04-19T04:13:56.828Z,567.00
2023-04-19T04:14:56.893Z,562.00
2023-04-19T04:15:56.927Z,572.00
2023-04-19T04:16:55.938Z,585.00
2023-04-19T04:17:56.025Z,586.00
2023-04-19T04:18:57.029Z,585.00
2023-04-19T04:19:57.076Z,586.00
2023-04-19T04:20:56.102Z,584.00
2023-04-19T04:21:56.133Z,570.00
2023-04-19T04:22:57.186Z,575.00
2023-04-19T04:23:56.228Z,566.00
2023-04-19T04:24:57.271Z,579.00
2023-04-19T04:25:57.327Z,585.00
2023-04-19T04:26:57.384Z,583.00
2023-04-19T04:27:57.424Z,587.00
2023-04-19T04:28:56.482Z,587.00
2023-04-19T04:29:57.539Z,589.00
2023-04-19T04:30:57.595Z,590.00
2023-04-19T04:31:56.689Z,600.00
2023-04-19T04:32:57.710Z,599.00
2023-04-19T04:33:57.706Z,606.00
2023-04-19T04:34:57.770Z,606.00
2023-04-19T04:35:57.817Z,611.00
2023-04-19T04:36:57.872Z,608.00
2023-04-19T04:37:57.919Z,608.00
2023-04-19T04:38:57.965Z,610.00
2023-04-19T04:39:57.046Z,604.00
2023-04-19T04:40:58.059Z,590.00
2023-04-19T04:41:58.108Z,583.00
2023-04-19T04:42:58.155Z,584.00
2023-04-19T04:44:11.487Z,577.00
2023-04-19T04:44:58.210Z,577.00
2023-04-19T04:45:58.530Z,577.00
2023-04-19T04:46:57.210Z,572.00
2023-04-19T04:47:57.280Z,569.00
2023-04-19T04:48:58.164Z,562.00
2023-04-19T04:49:57.165Z,557.00
2023-04-19T04:50:57.160Z,555.00
2023-04-19T04:51:58.131Z,557.00
2023-04-19T04:52:58.120Z,559.00
2023-04-19T04:53:58.179Z,557.00
2023-04-19T04:54:58.125Z,548.00
2023-04-19T04:55:57.115Z,552.00
2023-04-19T04:56:57.315Z,541.00
2023-04-19T04:57:58.093Z,543.00
2023-04-19T04:58:58.073Z,543.00
2023-04-19T04:59:57.070Z,543.00
2023-04-19T05:00:58.114Z,542.00
2023-04-19T05:01:57.117Z,545.00
2023-04-19T05:02:57.212Z,542.00
2023-04-19T05:03:58.084Z,539.00
2023-04-19T05:04:58.032Z,533.00
2023-04-19T05:05:57.034Z,538.00
2023-04-19T05:06:57.035Z,539.00
2023-04-19T05:07:58.056Z,541.00
2023-04-19T05:08:57.018Z,546.00
2023-04-19T05:09:57.575Z,538.00
2023-04-19T05:10:57.036Z,541.00
2023-04-19T05:11:58.043Z,544.00
2023-04-19T05:12:57.090Z,543.00
2023-04-19T05:13:58.104Z,536.00
2023-04-19T05:14:58.137Z,539.00
2023-04-19T05:15:58.190Z,534.00
2023-04-19T05:16:58.192Z,540.00
2023-04-19T05:17:58.257Z,541.00
2023-04-19T05:18:57.312Z,540.00
2023-04-19T05:19:58.297Z,549.00
2023-04-19T05:20:57.391Z,549.00
2023-04-19T05:21:57.369Z,557.00
2023-04-19T05:22:58.410Z,546.00
2023-04-19T05:23:57.467Z,551.00
2023-04-19T05:24:58.453Z,549.00
2023-04-19T05:25:57.502Z,550.00
2023-04-19T05:26:58.526Z,538.00
2023-04-19T05:27:58.597Z,537.00
2023-04-19T05:28:57.595Z,558.00
2023-04-19T05:29:57.609Z,570.00
2023-04-19T05:30:57.689Z,565.00
2023-04-19T05:31:57.691Z,555.00
2023-04-19T05:32:57.760Z,544.00
2023-04-19T05:33:58.762Z,545.00
2023-04-19T05:34:57.826Z,550.00
2023-04-19T05:35:58.831Z,545.00
2023-04-19T05:36:57.870Z,546.00
2023-04-19T05:37:58.894Z,536.00
2023-04-19T05:38:58.923Z,536.00
2023-04-19T05:39:58.941Z,538.00
2023-04-19T05:40:58.973Z,535.00
2023-04-19T05:41:57.987Z,539.00
2023-04-19T05:42:59.020Z,543.00
2023-04-19T05:43:58.034Z,556.00
2023-04-19T05:44:58.081Z,549.00
2023-04-19T05:45:58.105Z,564.00
2023-04-19T05:46:59.108Z,566.00
2023-04-19T05:47:58.214Z,579.00
2023-04-19T05:48:58.148Z,568.00
2023-04-19T05:49:59.246Z,564.00
2023-04-19T05:50:59.189Z,562.00
2023-04-19T05:51:58.201Z,565.00
2023-04-19T05:52:58.289Z,571.00
2023-04-19T05:53:59.301Z,572.00
2023-04-19T05:54:58.242Z,576.00
2023-04-19T05:55:59.236Z,578.00
2023-04-19T05:56:59.228Z,581.00
2023-04-19T05:57:59.284Z,561.00
2023-04-19T05:58:59.277Z,581.00
2023-04-19T06:00:58.313Z,601.00
2023-04-19T06:01:59.374Z,595.00
2023-04-19T06:02:58.483Z,621.00
2023-04-19T06:03:59.395Z,622.00
2023-04-19T06:05:02.492Z,638.00
2023-04-19T06:05:59.333Z,639.00
2023-04-19T06:06:58.247Z,641.00
2023-04-19T06:08:58.327Z,654.00
2023-04-19T06:09:59.311Z,679.00
2023-04-19T06:11:02.632Z,676.00
2023-04-19T06:11:59.212Z,679.00
2023-04-19T06:12:59.362Z,690.00
2023-04-19T06:13:58.180Z,711.00
2023-04-19T06:14:58.184Z,767.00
2023-04-19T06:15:59.241Z,832.00
2023-04-19T06:16:58.177Z,855.00
2023-04-19T06:17:59.821Z,871.00
2023-04-19T06:18:59.166Z,888.00
2023-04-19T06:19:58.145Z,906.00
2023-04-19T06:20:58.198Z,931.00
2023-04-19T06:21:59.247Z,939.00
2023-04-19T06:22:58.137Z,954.00
2023-04-19T06:23:58.124Z,959.00
2023-04-19T06:24:59.101Z,990.00
2023-04-19T06:25:58.100Z,1011.00
2023-04-19T06:26:59.120Z,1028.00
2023-04-19T06:27:58.088Z,1061.00
2023-04-19T06:28:59.080Z,1072.00
2023-04-19T06:29:59.080Z,1073.00
2023-04-19T06:30:58.086Z,1079.00
2023-04-19T06:31:59.163Z,1110.00
2023-04-19T06:32:59.088Z,1126.00
2023-04-19T06:33:59.036Z,1138.00
2023-04-19T06:34:58.071Z,1146.00
2023-04-19T06:35:58.113Z,1181.00
2023-04-19T06:36:59.178Z,1181.00
2023-04-19T06:37:58.040Z,1202.00
2023-04-19T06:38:59.039Z,1214.00
2023-04-19T06:39:59.008Z,1222.00
2023-04-19T06:40:59.009Z,1249.00
2023-04-19T06:41:59.006Z,1265.00
2023-04-19T06:42:59.039Z,1248.00
2023-04-19T06:43:58.018Z,1265.00
2023-04-19T06:44:58.025Z,1279.00
2023-04-19T06:45:59.120Z,1277.00
2023-04-19T06:46:58.080Z,1309.00
2023-04-19T06:47:59.158Z,1299.00
2023-04-19T06:48:59.121Z,1324.00
2023-04-19T06:49:59.319Z,1353.00
2023-04-19T06:50:59.139Z,1362.00
2023-04-19T06:51:58.107Z,1379.00
2023-04-19T06:52:58.321Z,1372.00
2023-04-19T06:53:59.174Z,1381.00
2023-04-19T06:54:59.135Z,1419.00
2023-04-19T06:55:58.155Z,1433.00
2023-04-19T06:56:59.168Z,1411.00
2023-04-19T06:57:59.309Z,1439.00
2023-04-19T06:58:58.236Z,1446.00
2023-04-19T06:59:59.204Z,1457.00
2023-04-19T07:00:58.276Z,1471.00
2023-04-19T07:01:59.270Z,1465.00
2023-04-19T07:02:58.308Z,1457.00
2023-04-19T07:03:58.453Z,1453.00
2023-04-19T07:04:59.222Z,1445.00
2023-04-19T07:05:59.298Z,1446.00
2023-04-19T07:06:58.259Z,1407.00
2023-04-19T07:07:59.325Z,1383.00
2023-04-19T07:08:59.337Z,1386.00
2023-04-19T07:09:59.639Z,1355.00
2023-04-19T07:10:59.370Z,1331.00
2023-04-19T07:11:59.644Z,1322.00
2023-04-19T07:12:59.576Z,1295.00
2023-04-19T07:13:59.471Z,1255.00
2023-04-19T07:14:58.798Z,1192.00
2023-04-19T07:15:58.709Z,1207.00
2023-04-19T07:16:59.582Z,1193.00
2023-04-19T07:17:58.699Z,1201.00
2023-04-19T07:18:58.594Z,1207.00
2023-04-19T07:19:59.545Z,1191.00
2023-04-19T07:20:59.558Z,1178.00
2023-04-19T07:21:58.540Z,1196.00
2023-04-19T07:22:59.557Z,1215.00
2023-04-19T07:23:59.568Z,1188.00
2023-04-19T07:24:59.554Z,1219.00
2023-04-19T07:25:58.617Z,1216.00
2023-04-19T07:26:59.592Z,1217.00
2023-04-19T07:27:59.642Z,1220.00
2023-04-19T07:28:59.715Z,1230.00
2023-04-19T07:29:59.765Z,1243.00
2023-04-19T07:30:59.790Z,1247.00
2023-04-19T07:31:59.864Z,1252.00
2023-04-19T07:32:59.890Z,1278.00
2023-04-19T07:33:59.943Z,1292.00
2023-04-19T07:34:59.966Z,1306.00
2023-04-19T07:35:59.075Z,1325.00
2023-04-19T07:37:00.074Z,1344.00
2023-04-19T07:37:59.151Z,1351.00
2023-04-19T07:38:59.179Z,1377.00
2023-04-19T07:40:00.292Z,1369.00
2023-04-19T07:40:59.346Z,1372.00
2023-04-19T07:41:59.520Z,1382.00
2023-04-19T07:43:00.431Z,1406.00
2023-04-19T07:44:00.502Z,1450.00
2023-04-19T07:45:00.532Z,1435.00
2023-04-19T07:46:00.594Z,1452.00
2023-04-19T07:47:00.738Z,1467.00
2023-04-19T07:48:00.847Z,1458.00
2023-04-19T07:48:59.712Z,1460.00
2023-04-19T07:50:00.761Z,1471.00
2023-04-19T07:51:00.876Z,1490.00
2023-04-19T07:52:00.843Z,1495.00
2023-04-19T07:53:00.876Z,1498.00
2023-04-19T07:54:00.816Z,1502.00
2023-04-19T07:55:00.835Z,1500.00
2023-04-19T07:55:59.870Z,1522.00
2023-04-19T07:57:00.873Z,1531.00
2023-04-19T07:58:01.062Z,1526.00
2023-04-19T07:59:07.631Z,1531.00
2023-04-19T08:00:00.914Z,1531.00
2023-04-19T08:01:01.041Z,1533.00
2023-04-19T08:02:00.029Z,1535.00
2023-04-19T08:03:01.065Z,1536.00
2023-04-19T08:04:00.181Z,1547.00
2023-04-19T08:05:01.001Z,1543.00
2023-04-19T08:05:59.881Z,1534.00
2023-04-19T08:06:59.923Z,1544.00
2023-04-19T08:07:59.853Z,1540.00
2023-04-19T08:09:00.858Z,1544.00
2023-04-19T08:10:01.037Z,1531.00
2023-04-19T08:11:01.969Z,1524.00
2023-04-19T08:11:59.871Z,1535.00
2023-04-19T08:13:05.856Z,1514.00
2023-04-19T08:14:26.829Z,1515.00
2023-04-19T08:15:07.916Z,1515.00
2023-04-19T08:16:20.434Z,1517.00
2023-04-19T08:17:59.897Z,1517.00
2023-04-19T08:18:59.870Z,1521.00
2023-04-19T08:19:59.850Z,1524.00
2023-04-19T08:20:59.853Z,1528.00
2023-04-19T08:22:00.861Z,1525.00
2023-04-19T08:23:10.498Z,1513.00
2023-04-19T08:24:00.870Z,1515.00
2023-04-19T08:24:59.827Z,1517.00
2023-04-19T08:26:00.834Z,1516.00
2023-04-19T08:27:00.228Z,1505.00
2023-04-19T08:28:00.816Z,1509.00
2023-04-19T08:29:00.787Z,1491.00
2023-04-19T08:29:59.829Z,1485.00
2023-04-19T08:31:00.781Z,1475.00
2023-04-19T08:31:59.888Z,1485.00
2023-04-19T08:32:59.886Z,1473.00
2023-04-19T08:34:00.775Z,1479.00
2023-04-19T08:35:00.756Z,1453.00
2023-04-19T08:36:00.783Z,1444.00
2023-04-19T08:37:04.449Z,1448.00
2023-04-19T08:38:02.054Z,1449.00
2023-04-19T08:39:05.722Z,1452.00
2023-04-19T08:40:00.729Z,1450.00
2023-04-19T08:40:59.702Z,1453.00
2023-04-19T08:42:06.801Z,1451.00
2023-04-19T08:43:00.886Z,1450.00
2023-04-19T08:43:59.696Z,1455.00
2023-04-19T08:46:00.829Z,1450.00
2023-04-19T08:47:00.658Z,1451.00
2023-04-19T08:48:01.844Z,1450.00
2023-04-19T08:49:00.888Z,1450.00
2023-04-19T08:50:11.045Z,1431.00
2023-04-19T08:51:05.427Z,1449.00
2023-04-19T08:52:01.145Z,1449.00
2023-04-19T08:53:08.507Z,1449.00
2023-04-19T08:54:00.882Z,1449.00
2023-04-19T08:54:59.875Z,1451.00
2023-04-19T08:56:10.495Z,1445.00
2023-04-19T08:57:00.889Z,1449.00
2023-04-19T08:58:00.882Z,1447.00
2023-04-19T08:59:11.518Z,1432.00
2023-04-19T09:00:00.825Z,1449.00
2023-04-19T09:01:00.865Z,1445.00
2023-04-19T09:01:59.969Z,1421.00
2023-04-19T09:03:01.066Z,1411.00
2023-04-19T09:04:07.267Z,1407.00
2023-04-19T09:05:01.057Z,1439.00
2023-04-19T09:06:00.855Z,1443.00
2023-04-19T09:07:00.754Z,1425.00
2023-04-19T09:08:00.791Z,1411.00
2023-04-19T09:09:00.770Z,1394.00
2023-04-19T09:10:03.225Z,1389.00
2023-04-19T09:11:00.750Z,1390.00
2023-04-19T09:12:00.790Z,1390.00
2023-04-19T09:13:00.730Z,1384.00
2023-04-19T09:13:59.707Z,1385.00
2023-04-19T09:15:02.334Z,1382.00
2023-04-19T09:16:00.927Z,1389.00
2023-04-19T09:17:00.735Z,1390.00
2023-04-19T09:18:00.821Z,1392.00
2023-04-19T09:19:08.599Z,1394.00
2023-04-19T09:20:00.696Z,1390.00
2023-04-19T09:21:00.710Z,1375.00
2023-04-19T09:21:59.662Z,1389.00
2023-04-19T09:23:00.664Z,1382.00
2023-04-19T09:24:02.420Z,1366.00
2023-04-19T09:27:00.617Z,1390.00
2023-04-19T09:28:00.661Z,1390.00
2023-04-19T09:28:59.605Z,1383.00
2023-04-19T09:29:59.596Z,1379.00
2023-04-19T09:31:15.148Z,1352.00
2023-04-19T09:32:00.676Z,1365.00
2023-04-19T09:33:00.618Z,1329.00
2023-04-19T09:34:00.660Z,1327.00
2023-04-19T09:34:59.745Z,1287.00
2023-04-19T09:35:59.589Z,1245.00
2023-04-19T09:37:11.723Z,1216.00
2023-04-19T09:38:05.833Z,1217.00
2023-04-19T09:39:00.538Z,1217.00
2023-04-19T09:40:00.520Z,1217.00
2023-04-19T09:41:00.551Z,1177.00
2023-04-19T09:42:00.507Z,1171.00
2023-04-19T09:43:12.887Z,1124.00
2023-04-19T09:44:15.557Z,1160.00
2023-04-19T09:45:25.425Z,1075.00
2023-04-19T09:46:00.559Z,1024.00
2023-04-19T09:47:00.506Z,1011.00
2023-04-19T09:48:00.965Z,978.00
2023-04-19T09:49:04.049Z,950.00
2023-04-19T09:50:00.698Z,979.00
2023-04-19T09:51:04.609Z,900.00
2023-04-19T09:52:00.437Z,929.00
2023-04-19T09:53:01.484Z,939.00
2023-04-19T09:54:00.420Z,909.00
2023-04-19T09:54:59.426Z,925.00
2023-04-19T09:56:02.754Z,894.00
2023-04-19T09:57:01.619Z,904.00
2023-04-19T09:58:00.421Z,915.00
2023-04-19T09:59:11.956Z,907.00
2023-04-19T10:00:00.384Z,930.00
2023-04-19T10:01:13.241Z,907.00
2023-04-19T10:02:00.462Z,946.00
2023-04-19T10:02:59.388Z,873.00
2023-04-19T10:04:14.455Z,823.00
2023-04-19T10:06:06.752Z,865.00
2023-04-19T10:08:01.418Z,871.00
2023-04-19T10:08:59.305Z,830.00
2023-04-19T10:10:11.589Z,809.00
2023-04-19T10:11:00.298Z,845.00
2023-04-19T10:12:06.553Z,798.00
2023-04-19T10:14:00.274Z,873.00
2023-04-19T10:14:59.288Z,826.00
2023-04-19T10:16:04.814Z,798.00
2023-04-19T10:17:00.340Z,803.00
2023-04-19T10:18:00.260Z,792.00
2023-04-19T10:19:00.240Z,779.00
2023-04-19T10:20:00.259Z,776.00
2023-04-19T10:21:00.259Z,803.00
2023-04-19T10:21:59.310Z,780.00
2023-04-19T10:22:59.194Z,764.00
2023-04-19T10:23:59.206Z,698.00
2023-04-19T10:24:59.185Z,697.00
2023-04-19T10:26:00.214Z,695.00
2023-04-19T10:27:00.183Z,706.00
2023-04-19T10:27:59.248Z,734.00
2023-04-19T10:28:59.312Z,702.00
2023-04-19T10:30:00.337Z,676.00
2023-04-19T10:31:00.382Z,633.00
2023-04-19T10:31:59.482Z,641.00
2023-04-19T10:33:00.577Z,649.00
2023-04-19T10:33:59.557Z,641.00
2023-04-19T10:35:00.610Z,648.00
2023-04-19T10:36:00.650Z,643.00
2023-04-19T10:37:00.695Z,641.00
2023-04-19T10:37:59.900Z,630.00
2023-04-19T10:38:59.780Z,623.00
2023-04-19T10:40:00.830Z,618.00
2023-04-19T10:40:59.878Z,616.00
2023-04-19T10:41:59.925Z,594.00
2023-04-19T10:42:59.948Z,615.00
2023-04-19T10:44:00.398Z,609.00
2023-04-19T10:45:00.989Z,598.00
2023-04-19T10:46:01.053Z,566.00
2023-04-19T10:47:00.029Z,577.00
2023-04-19T10:48:00.095Z,581.00
2023-04-19T10:49:01.049Z,590.00
2023-04-19T10:50:01.084Z,598.00
2023-04-19T10:51:01.168Z,610.00
2023-04-19T10:52:01.231Z,612.00
2023-04-19T10:53:00.285Z,632.00
2023-04-19T10:54:00.538Z,642.00
2023-04-19T10:55:00.328Z,633.00
2023-04-19T10:56:01.371Z,626.00
2023-04-19T10:57:00.439Z,639.00
2023-04-19T10:58:00.426Z,641.00
2023-04-19T10:59:01.932Z,648.00
2023-04-19T11:00:00.503Z,662.00
2023-04-19T11:01:01.566Z,664.00
2023-04-19T11:02:00.621Z,694.00
2023-04-19T11:03:00.698Z,757.00
2023-04-19T11:04:00.681Z,742.00
2023-04-19T11:05:00.608Z,710.00
2023-04-19T11:06:01.569Z,730.00
2023-04-19T11:07:00.523Z,748.00
2023-04-19T11:08:01.564Z,750.00
2023-04-19T11:09:01.520Z,746.00
2023-04-19T11:10:00.577Z,804.00
2023-04-19T11:11:00.562Z,805.00
2023-04-19T11:12:00.511Z,817.00
2023-04-19T11:13:01.531Z,836.00
2023-04-19T11:14:01.525Z,850.00
2023-04-19T11:15:01.635Z,842.00
2023-04-19T11:16:01.778Z,851.00
2023-04-19T11:17:01.839Z,883.00
2023-04-19T11:18:12.708Z,924.00
2023-04-19T11:19:01.733Z,925.00
2023-04-19T11:20:01.713Z,929.00
2023-04-19T11:21:00.686Z,931.00
2023-04-19T11:22:01.705Z,930.00
2023-04-19T11:23:01.674Z,962.00
2023-04-19T11:24:00.697Z,972.00
2023-04-19T11:25:01.696Z,957.00
2023-04-19T11:26:01.701Z,960.00
2023-04-19T11:27:00.648Z,962.00
2023-04-19T11:28:00.669Z,983.00
2023-04-19T11:29:00.631Z,999.00
2023-04-19T11:30:01.659Z,1013.00
2023-04-19T11:31:00.692Z,1019.00
2023-04-19T11:32:01.678Z,1032.00
2023-04-19T11:33:01.670Z,1051.00
2023-04-19T11:34:00.622Z,1064.00
2023-04-19T11:35:01.660Z,1089.00
2023-04-19T11:36:01.596Z,1095.00
2023-04-19T11:37:00.583Z,1122.00
2023-04-19T11:38:01.572Z,1127.00
2023-04-19T11:39:01.609Z,1112.00
2023-04-19T11:40:02.104Z,1123.00
2023-04-19T11:41:01.674Z,1158.00
2023-04-19T11:42:01.700Z,1154.00
2023-04-19T11:43:01.551Z,1122.00
2023-04-19T11:44:01.557Z,1111.00
2023-04-19T11:45:00.509Z,1093.00
2023-04-19T11:46:01.512Z,1078.00
2023-04-19T11:47:01.534Z,1066.00
2023-04-19T11:48:00.638Z,1057.00
2023-04-19T11:49:00.500Z,1022.00
2023-04-19T11:50:00.482Z,1033.00
2023-04-19T11:51:01.615Z,1008.00
2023-04-19T11:52:04.660Z,1000.00
2023-04-19T11:53:01.470Z,1002.00
2023-04-19T11:54:01.467Z,1001.00
2023-04-19T11:55:01.426Z,996.00
2023-04-19T11:56:01.475Z,977.00
2023-04-19T11:57:00.424Z,961.00
2023-04-19T11:58:01.488Z,962.00
2023-04-19T11:59:01.440Z,950.00
2023-04-19T12:00:00.422Z,934.00
2023-04-19T12:01:01.400Z,926.00
2023-04-19T12:02:01.464Z,929.00
2023-04-19T12:03:01.562Z,905.00
2023-04-19T12:04:02.082Z,902.00
2023-04-19T12:05:01.750Z,892.00
2023-04-19T12:06:01.661Z,873.00
2023-04-19T12:07:00.548Z,862.00
2023-04-19T12:08:00.587Z,883.00
2023-04-19T12:09:00.637Z,859.00
2023-04-19T12:10:01.652Z,854.00
2023-04-19T12:11:01.704Z,858.00
2023-04-19T12:12:00.753Z,850.00
2023-04-19T12:13:00.800Z,838.00
2023-04-19T12:14:01.881Z,846.00
2023-04-19T12:15:00.894Z,837.00
2023-04-19T12:16:00.953Z,831.00
2023-04-19T12:17:01.073Z,833.00
2023-04-19T12:18:02.163Z,808.00
2023-04-19T12:19:01.115Z,812.00
2023-04-19T12:20:02.148Z,801.00
2023-04-19T12:21:02.190Z,808.00
2023-04-19T12:22:02.217Z,815.00
2023-04-19T12:23:02.261Z,800.00
2023-04-19T12:24:02.313Z,817.00
2023-04-19T12:25:01.326Z,815.00
2023-04-19T12:26:02.391Z,829.00
2023-04-19T12:27:03.341Z,820.00
2023-04-19T12:28:01.394Z,827.00
2023-04-19T12:29:02.394Z,821.00
2023-04-19T12:30:02.514Z,827.00
2023-04-19T12:31:02.365Z,801.00